Time;durP1;ratioP1;P1;durP2;ratioP2;P2;SDS_P1;SDS_P2;PMS_P1;PMS_P2;Temp;Humidity;BMP_temperature;BMP_pressure;BME280_temperature;BME280_humidity;BME280_pressure;Samples;Min_cycle;Max_cycle;Signal;HPM_P1;HPM_P2
2023/04/27 00:01:14;;;;;;;;;;;9.70;42.90;;;;;;5048483;28;19919;-61
2023/04/27 00:03:40;;;;;;;;;;;9.70;42.90;;;;;;5048768;28;20392;-60
2023/04/27 00:06:06;;;;;;;;;;;9.80;43.00;;;;;;5048181;28;20003;-60
2023/04/27 00:08:31;;;;;;;;;;;9.80;43.10;;;;;;5048400;28;19924;-60
2023/04/27 00:10:57;;;;;;;;;;;9.80;43.10;;;;;;5048124;28;20299;-60
2023/04/27 00:13:22;;;;;;;;;;;9.80;43.10;;;;;;5030058;28;19986;-60
2023/04/27 00:15:48;;;;;;;;;;;9.80;43.10;;;;;;5047955;28;19913;-61
2023/04/27 00:18:13;;;;;;;;;;;9.80;43.10;;;;;;5048081;28;19920;-60
2023/04/27 00:20:39;;;;;;;;;;;9.80;43.30;;;;;;5047925;28;19936;-60
2023/04/27 00:23:05;;;;;;;;;;;9.90;43.50;;;;;;5048040;28;20004;-61
2023/04/27 00:25:30;;;;;;;;;;;10.00;43.60;;;;;;5029868;28;19967;-60
2023/04/27 00:27:56;;;;;;;;;;;10.10;44.00;;;;;;5047927;28;19923;-59
2023/04/27 00:30:21;;;;;;;;;;;10.20;44.20;;;;;;5047939;28;20021;-60
2023/04/27 00:32:46;;;;;;;;;;;10.20;44.40;;;;;;5047801;28;19947;-60
2023/04/27 00:35:12;;;;;;;;;;;10.30;44.50;;;;;;5047858;28;20269;-60
2023/04/27 00:37:37;;;;;;;;;;;10.30;44.70;;;;;;5047922;28;19944;-60
2023/04/27 00:40:05;;;;;;;;;;;10.30;44.60;;;;;;5047560;28;19921;-60
2023/04/27 00:42:31;;;;;;;;;;;10.30;44.50;;;;;;5047488;28;20000;-60
2023/04/27 00:44:57;;;;;;;;;;;10.20;44.30;;;;;;5047219;28;20000;-60
2023/04/27 00:47:23;;;;;;;;;;;10.20;44.30;;;;;;5047624;28;20421;-60
2023/04/27 00:49:48;;;;;;;;;;;10.10;44.20;;;;;;5047957;28;19950;-60
2023/04/27 00:52:14;;;;;;;;;;;10.00;44.20;;;;;;5047833;28;19918;-60
2023/04/27 00:54:39;;;;;;;;;;;10.00;44.30;;;;;;5047145;28;19921;-60
2023/04/27 00:57:05;;;;;;;;;;;10.00;44.30;;;;;;5047371;28;20024;-61
2023/04/27 00:59:30;;;;;;;;;;;9.90;44.30;;;;;;5047529;28;19932;-60
2023/04/27 01:01:56;;;;;;;;;;;9.80;44.20;;;;;;5047356;28;20004;-60
2023/04/27 01:04:22;;;;;;;;;;;9.80;44.20;;;;;;5047715;28;19932;-61
2023/04/27 01:06:47;;;;;;;;;;;9.70;44.10;;;;;;5047347;28;19944;-60
2023/04/27 01:09:13;;;;;;;;;;;9.70;44.10;;;;;;5047577;28;19939;-61
2023/04/27 01:11:38;;;;;;;;;;;9.70;44.10;;;;;;5047154;28;19908;-60
2023/04/27 01:14:04;;;;;;;;;;;9.60;44.20;;;;;;5029161;28;19916;-60
2023/04/27 01:16:31;;;;;;;;;;;9.60;44.20;;;;;;5029116;28;19944;-61
2023/04/27 01:18:57;;;;;;;;;;;9.50;44.20;;;;;;5047056;28;19959;-60
2023/04/27 01:21:22;;;;;;;;;;;9.50;44.20;;;;;;5047122;28;19948;-60
2023/04/27 01:23:48;;;;;;;;;;;9.50;44.20;;;;;;5047115;28;19970;-60
2023/04/27 01:26:15;;;;;;;;;;;9.50;44.30;;;;;;5028788;28;19921;-60
2023/04/27 01:28:41;;;;;;;;;;;9.50;44.30;;;;;;5047054;28;20347;-60
2023/04/27 01:31:06;;;;;;;;;;;9.40;44.30;;;;;;5046826;28;19913;-60
2023/04/27 01:33:32;;;;;;;;;;;9.40;44.30;;;;;;5047162;28;20291;-60
2023/04/27 01:35:57;;;;;;;;;;;9.40;44.30;;;;;;5047112;28;19909;-60
2023/04/27 01:38:23;;;;;;;;;;;9.30;44.40;;;;;;5046993;28;20011;-60
2023/04/27 01:40:48;;;;;;;;;;;9.30;44.40;;;;;;5046809;28;20078;-61
2023/04/27 01:43:14;;;;;;;;;;;9.30;44.40;;;;;;5046555;28;19919;-60
2023/04/27 01:45:39;;;;;;;;;;;9.30;44.40;;;;;;5046819;28;19956;-60
2023/04/27 01:48:05;;;;;;;;;;;9.30;44.50;;;;;;5046835;28;20267;-60
2023/04/27 01:50:30;;;;;;;;;;;9.30;44.60;;;;;;5047127;28;20322;-60
2023/04/27 01:52:56;;;;;;;;;;;9.20;44.60;;;;;;5028690;28;19963;-60
2023/04/27 01:55:24;;;;;;;;;;;9.20;44.60;;;;;;5046585;28;19917;-60
2023/04/27 01:57:49;;;;;;;;;;;9.20;44.60;;;;;;5050585;28;19975;-60
2023/04/27 02:00:15;;;;;;;;;;;9.20;44.60;;;;;;5050792;28;19946;-60
2023/04/27 02:02:40;;;;;;;;;;;9.10;44.60;;;;;;5050588;28;19928;-60
2023/04/27 02:05:06;;;;;;;;;;;9.10;44.70;;;;;;5050481;28;19974;-60
2023/04/27 02:07:31;;;;;;;;;;;9.10;44.70;;;;;;5032774;28;19989;-60
2023/04/27 02:09:57;;;;;;;;;;;9.10;44.70;;;;;;5050546;28;19920;-60
2023/04/27 02:12:22;;;;;;;;;;;9.10;44.80;;;;;;5050760;28;19997;-60
2023/04/27 02:14:48;;;;;;;;;;;9.00;44.70;;;;;;5032219;28;19923;-60
2023/04/27 02:17:13;;;;;;;;;;;9.00;44.60;;;;;;5050244;28;19954;-60
2023/04/27 02:19:38;;;;;;;;;;;8.90;44.60;;;;;;5050624;28;19989;-60
2023/04/27 02:22:04;;;;;;;;;;;8.80;44.60;;;;;;5050213;28;20439;-60
2023/04/27 02:24:30;;;;;;;;;;;8.70;44.70;;;;;;5050493;28;19913;-60
2023/04/27 02:26:55;;;;;;;;;;;8.60;44.60;;;;;;5050247;28;19916;-61
2023/04/27 02:29:20;;;;;;;;;;;8.50;44.70;;;;;;5050453;28;20383;-60
2023/04/27 02:31:46;;;;;;;;;;;8.50;45.10;;;;;;5050232;28;19909;-60
2023/04/27 02:34:11;;;;;;;;;;;8.40;45.00;;;;;;5050338;28;19917;-60
2023/04/27 02:36:37;;;;;;;;;;;8.30;45.10;;;;;;5050244;28;20011;-60
2023/04/27 02:39:02;;;;;;;;;;;8.20;45.00;;;;;;5032096;28;19920;-60
2023/04/27 02:41:30;;;;;;;;;;;8.10;45.00;;;;;;5032093;28;19913;-60
2023/04/27 02:43:55;;;;;;;;;;;8.00;45.10;;;;;;5050141;28;20352;-61
2023/04/27 02:46:21;;;;;;;;;;;7.90;45.10;;;;;;5049760;28;19970;-60
2023/04/27 02:48:46;;;;;;;;;;;7.80;45.20;;;;;;5049929;28;19923;-60
2023/04/27 02:51:12;;;;;;;;;;;7.80;45.20;;;;;;5050009;28;19913;-60
2023/04/27 02:53:37;;;;;;;;;;;7.80;45.20;;;;;;5049566;28;19921;-60
2023/04/27 02:56:03;;;;;;;;;;;7.70;45.20;;;;;;5049827;28;19909;-60
2023/04/27 02:58:28;;;;;;;;;;;7.60;45.20;;;;;;5049641;28;20394;-60
2023/04/27 03:00:54;;;;;;;;;;;7.50;45.20;;;;;;5049575;28;19916;-60
2023/04/27 03:03:20;;;;;;;;;;;7.50;45.20;;;;;;5049269;28;19928;-59
2023/04/27 03:05:45;;;;;;;;;;;7.40;45.20;;;;;;5049773;28;20367;-60
2023/04/27 03:08:11;;;;;;;;;;;7.30;45.30;;;;;;5049080;28;19917;-60
2023/04/27 03:10:36;;;;;;;;;;;7.30;45.40;;;;;;5049286;28;20049;-60
2023/04/27 03:13:02;;;;;;;;;;;7.20;45.40;;;;;;5049400;28;20422;-60
2023/04/27 03:15:27;;;;;;;;;;;7.20;45.50;;;;;;5049319;28;20291;-60
2023/04/27 03:17:52;;;;;;;;;;;7.10;45.50;;;;;;5049274;28;19917;-60
2023/04/27 03:20:18;;;;;;;;;;;7.10;45.50;;;;;;5049260;28;19916;-60
2023/04/27 03:22:44;;;;;;;;;;;7.00;45.60;;;;;;5049432;28;20367;-60
2023/04/27 03:25:10;;;;;;;;;;;7.00;45.60;;;;;;5049112;28;20435;-60
2023/04/27 03:27:35;;;;;;;;;;;6.90;45.70;;;;;;5048890;28;19916;-60
2023/04/27 03:30:02;;;;;;;;;;;6.80;45.70;;;;;;5049007;28;20363;-60
2023/04/27 03:32:27;;;;;;;;;;;6.80;45.70;;;;;;5048758;28;20554;-60
2023/04/27 03:34:53;;;;;;;;;;;6.70;45.80;;;;;;5048800;28;19970;-60
2023/04/27 03:37:18;;;;;;;;;;;6.70;45.90;;;;;;5048707;28;19913;-60
2023/04/27 03:39:44;;;;;;;;;;;6.60;46.00;;;;;;5048652;28;19920;-60
2023/04/27 03:42:09;;;;;;;;;;;6.60;46.10;;;;;;5048662;28;19920;-60
2023/04/27 03:44:35;;;;;;;;;;;6.50;46.20;;;;;;5049242;28;19960;-60
2023/04/27 03:47:00;;;;;;;;;;;6.50;46.10;;;;;;5048751;28;19995;-60
2023/04/27 03:49:26;;;;;;;;;;;6.40;46.10;;;;;;5048815;28;20410;-61
2023/04/27 03:51:52;;;;;;;;;;;6.40;46.00;;;;;;5048853;28;19917;-60
2023/04/27 03:54:17;;;;;;;;;;;6.30;46.10;;;;;;5048726;28;20358;-60
2023/04/27 03:56:46;;;;;;;;;;;6.20;46.10;;;;;;5048753;28;19915;-60
2023/04/27 03:59:12;;;;;;;;;;;6.20;46.10;;;;;;5048565;28;19924;-60
2023/04/27 04:01:38;;;;;;;;;;;6.10;46.10;;;;;;5048134;28;19917;-60
2023/04/27 04:04:04;;;;;;;;;;;6.10;46.20;;;;;;5048654;28;19917;-60
2023/04/27 04:06:30;;;;;;;;;;;6.00;46.20;;;;;;5030614;28;20245;-61
2023/04/27 04:08:55;;;;;;;;;;;6.00;46.30;;;;;;5048681;28;20360;-61
2023/04/27 04:11:21;;;;;;;;;;;5.90;46.30;;;;;;5048215;28;19913;-60
2023/04/27 04:13:47;;;;;;;;;;;5.90;46.40;;;;;;5048171;28;19921;-60
2023/04/27 04:16:12;;;;;;;;;;;5.90;46.60;;;;;;5047904;28;19916;-61
2023/04/27 04:18:38;;;;;;;;;;;5.90;46.60;;;;;;5047733;28;19928;-61
2023/04/27 04:21:03;;;;;;;;;;;6.00;46.70;;;;;;5046994;28;20382;-61
2023/04/27 04:23:29;;;;;;;;;;;5.90;46.80;;;;;;5048600;28;19921;-60
2023/04/27 04:25:57;;;;;;;;;;;6.00;47.00;;;;;;5048332;28;20272;-61
2023/04/27 04:28:23;;;;;;;;;;;6.10;47.30;;;;;;5047957;28;19927;-61
2023/04/27 04:30:48;;;;;;;;;;;6.20;47.40;;;;;;5047886;28;20287;-60
2023/04/27 04:33:14;;;;;;;;;;;6.30;47.70;;;;;;5029785;28;20368;-61
2023/04/27 04:35:40;;;;;;;;;;;6.40;48.20;;;;;;5048158;28;20091;-61
2023/04/27 04:38:06;;;;;;;;;;;6.70;49.00;;;;;;5047934;28;20016;-61
2023/04/27 04:40:31;;;;;;;;;;;7.00;49.60;;;;;;5029855;28;20427;-61
2023/04/27 04:42:57;;;;;;;;;;;7.40;50.10;;;;;;5047811;28;20003;-61
2023/04/27 04:45:22;;;;;;;;;;;7.80;50.60;;;;;;5029794;28;19909;-60
2023/04/27 04:47:48;;;;;;;;;;;8.20;51.00;;;;;;5047868;28;19921;-60
2023/04/27 04:50:13;;;;;;;;;;;8.70;51.40;;;;;;5047759;28;20386;-60
2023/04/27 04:52:39;;;;;;;;;;;9.20;51.60;;;;;;5047441;28;19966;-59
2023/04/27 04:55:05;;;;;;;;;;;9.60;51.70;;;;;;5047674;28;19920;-60
2023/04/27 04:57:30;;;;;;;;;;;10.10;51.90;;;;;;5047430;28;19912;-60
2023/04/27 04:59:56;;;;;;;;;;;10.60;51.90;;;;;;5047544;28;19920;-60
2023/04/27 05:02:22;;;;;;;;;;;11.00;51.70;;;;;;5047208;28;19916;-61
2023/04/27 05:04:47;;;;;;;;;;;11.50;51.60;;;;;;5044392;28;19913;-61
2023/04/27 05:07:13;;;;;;;;;;;12.00;51.40;;;;;;5047489;28;19916;-61
2023/04/27 05:09:38;;;;;;;;;;;12.50;51.10;;;;;;5047281;28;19917;-61
2023/04/27 05:12:04;;;;;;;;;;;13.00;50.90;;;;;;5047332;28;19916;-61
2023/04/27 05:14:29;;;;;;;;;;;13.40;50.50;;;;;;5045644;28;19920;-61
2023/04/27 05:16:55;;;;;;;;;;;13.90;50.40;;;;;;5046171;28;19920;-61
2023/04/27 05:19:20;;;;;;;;;;;14.40;50.00;;;;;;5046413;28;19917;-61
2023/04/27 05:21:46;;;;;;;;;;;14.90;49.80;;;;;;5038157;28;19913;-61
2023/04/27 05:24:11;;;;;;;;;;;15.40;49.40;;;;;;5046729;28;20412;-61
2023/04/27 05:26:37;;;;;;;;;;;15.90;49.00;;;;;;5042805;28;19917;-61
2023/04/27 05:29:02;;;;;;;;;;;16.40;48.60;;;;;;5045419;28;20382;-61
2023/04/27 05:31:28;;;;;;;;;;;16.90;48.20;;;;;;5045702;28;19912;-59
2023/04/27 05:33:53;;;;;;;;;;;17.40;47.40;;;;;;5045634;28;20395;-61
2023/04/27 05:36:19;;;;;;;;;;;17.80;46.60;;;;;;5046763;28;20067;-61
2023/04/27 05:38:44;;;;;;;;;;;18.30;45.70;;;;;;5046625;28;20260;-62
2023/04/27 05:41:11;;;;;;;;;;;18.80;44.50;;;;;;5044741;28;21497;-61
2023/04/27 05:43:37;;;;;;;;;;;19.20;43.70;;;;;;5045849;28;20426;-61
2023/04/27 05:46:03;;;;;;;;;;;19.70;42.90;;;;;;5046721;28;19931;-59
2023/04/27 05:48:28;;;;;;;;;;;20.20;41.80;;;;;;5045294;28;19917;-60
2023/04/27 05:51:03;;;;;;;;;;;20.60;41.30;;;;;;5045749;28;19920;-60
2023/04/27 05:53:29;;;;;;;;;;;21.10;40.60;;;;;;5045765;28;19916;-60
2023/04/27 05:55:55;;;;;;;;;;;21.50;39.80;;;;;;5046480;28;20000;-59
2023/04/27 05:58:21;;;;;;;;;;;22.00;38.70;;;;;;5045621;28;19935;-59
2023/04/27 06:00:46;;;;;;;;;;;22.40;38.20;;;;;;5046749;28;19921;-59
2023/04/27 06:03:12;;;;;;;;;;;22.80;37.50;;;;;;5046619;28;20450;-59
2023/04/27 06:05:37;;;;;;;;;;;23.20;37.10;;;;;;5028391;28;19999;-60
2023/04/27 06:08:02;;;;;;;;;;;23.70;36.20;;;;;;5044230;28;20008;-58
2023/04/27 06:10:28;;;;;;;;;;;24.10;35.50;;;;;;5046338;28;19917;-60
2023/04/27 06:12:53;;;;;;;;;;;24.50;34.60;;;;;;5045619;28;19913;-60
2023/04/27 06:15:19;;;;;;;;;;;25.00;33.60;;;;;;5046511;28;20284;-60
2023/04/27 06:17:45;;;;;;;;;;;25.30;32.60;;;;;;5045624;28;19917;-60
2023/04/27 06:20:11;;;;;;;;;;;25.70;31.90;;;;;;5046183;28;20024;-60
2023/04/27 06:22:36;;;;;;;;;;;25.90;31.20;;;;;;5045528;28;19935;-60
2023/04/27 06:25:02;;;;;;;;;;;26.30;31.10;;;;;;5046333;28;19925;-60
2023/04/27 06:27:28;;;;;;;;;;;26.60;30.40;;;;;;5044334;28;19954;-60
2023/04/27 06:29:53;;;;;;;;;;;26.90;29.80;;;;;;5046251;28;20314;-61
2023/04/27 06:32:19;;;;;;;;;;;27.10;29.10;;;;;;5045513;28;20391;-60
2023/04/27 06:34:45;;;;;;;;;;;27.40;28.30;;;;;;5046473;28;20011;-61
2023/04/27 06:37:11;;;;;;;;;;;27.60;28.00;;;;;;5045241;28;20019;-61
2023/04/27 06:39:36;;;;;;;;;;;28.00;27.30;;;;;;5045935;28;20042;-61
2023/04/27 06:42:04;;;;;;;;;;;28.20;26.60;;;;;;5044611;28;19963;-60
2023/04/27 06:44:30;;;;;;;;;;;28.40;26.20;;;;;;5049609;28;19913;-60
2023/04/27 06:46:55;;;;;;;;;;;28.60;25.10;;;;;;5048250;28;19917;-60
2023/04/27 06:49:21;;;;;;;;;;;28.80;24.70;;;;;;5049479;28;19917;-61
2023/04/27 06:51:47;;;;;;;;;;;29.00;24.40;;;;;;5049738;28;19920;-61
2023/04/27 06:54:12;;;;;;;;;;;29.20;23.70;;;;;;5049248;28;19917;-60
2023/04/27 06:56:38;;;;;;;;;;;29.30;23.40;;;;;;5046910;28;20378;-61
2023/04/27 06:59:03;;;;;;;;;;;29.30;23.20;;;;;;5047212;28;19919;-61
2023/04/27 07:01:29;;;;;;;;;;;29.40;23.10;;;;;;5043488;28;19925;-61
2023/04/27 07:03:54;;;;;;;;;;;29.70;22.90;;;;;;5049366;28;20013;-61
2023/04/27 07:06:21;;;;;;;;;;;29.90;22.70;;;;;;5049732;28;19917;-61
2023/04/27 07:08:46;;;;;;;;;;;30.20;21.90;;;;;;5049622;28;19920;-61
2023/04/27 07:11:12;;;;;;;;;;;30.30;20.30;;;;;;5049280;28;19921;-61
2023/04/27 07:13:37;;;;;;;;;;;30.30;20.00;;;;;;5049498;28;19999;-61
2023/04/27 07:16:03;;;;;;;;;;;30.30;20.50;;;;;;5049300;28;20298;-61
2023/04/27 07:18:28;;;;;;;;;;;30.30;20.60;;;;;;5049562;28;20327;-61
2023/04/27 07:20:54;;;;;;;;;;;30.30;19.70;;;;;;5031270;28;20399;-61
2023/04/27 07:23:20;;;;;;;;;;;30.40;19.70;;;;;;5049102;28;20012;-61
2023/04/27 07:25:45;;;;;;;;;;;30.50;19.80;;;;;;5049061;28;19921;-61
2023/04/27 07:28:11;;;;;;;;;;;30.50;19.30;;;;;;5049151;28;19956;-61
2023/04/27 07:30:37;;;;;;;;;;;30.40;19.60;;;;;;5048915;28;19912;-61
2023/04/27 07:33:03;;;;;;;;;;;30.40;19.70;;;;;;5049247;28;19921;-61
2023/04/27 07:35:28;;;;;;;;;;;30.30;18.80;;;;;;5049479;28;19939;-61
2023/04/27 07:37:55;;;;;;;;;;;30.00;18.40;;;;;;5031181;28;19916;-62
2023/04/27 07:40:23;;;;;;;;;;;29.80;18.30;;;;;;5048718;28;19942;-61
2023/04/27 07:42:48;;;;;;;;;;;29.60;18.50;;;;;;5048820;28;19920;-60
2023/04/27 07:45:16;;;;;;;;;;;29.60;18.50;;;;;;5049113;28;19913;-61
2023/04/27 07:47:42;;;;;;;;;;;29.70;18.70;;;;;;5048828;28;20169;-61
2023/04/27 07:50:08;;;;;;;;;;;29.70;18.70;;;;;;5048837;28;19940;-61
2023/04/27 07:52:34;;;;;;;;;;;29.80;18.80;;;;;;5048858;28;19909;-59
2023/04/27 07:54:59;;;;;;;;;;;30.10;18.60;;;;;;5048180;28;20388;-61
2023/04/27 07:57:24;;;;;;;;;;;30.30;18.70;;;;;;5048427;28;20000;-61
2023/04/27 07:59:50;;;;;;;;;;;30.70;18.40;;;;;;5048748;28;20019;-61
2023/04/27 08:02:15;;;;;;;;;;;31.00;18.40;;;;;;5048407;28;19909;-60
2023/04/27 08:04:41;;;;;;;;;;;31.20;17.40;;;;;;5049119;28;19995;-61
2023/04/27 08:07:06;;;;;;;;;;;31.40;17.70;;;;;;5048495;28;19913;-61
2023/04/27 08:09:32;;;;;;;;;;;31.40;17.60;;;;;;5048144;28;19927;-61
2023/04/27 08:11:57;;;;;;;;;;;31.30;16.80;;;;;;5048247;28;19936;-61
2023/04/27 08:14:22;;;;;;;;;;;31.20;16.70;;;;;;5048483;28;19917;-61
2023/04/27 08:16:48;;;;;;;;;;;31.20;17.20;;;;;;5048197;28;19939;-61
2023/04/27 08:19:13;;;;;;;;;;;31.20;16.50;;;;;;5047996;28;20319;-61
2023/04/27 08:21:39;;;;;;;;;;;31.00;16.20;;;;;;5048353;28;20426;-61
2023/04/27 08:24:05;;;;;;;;;;;30.80;16.70;;;;;;5030642;28;20004;-59
2023/04/27 08:26:30;;;;;;;;;;;30.90;16.60;;;;;;5048037;28;20384;-61
2023/04/27 08:28:56;;;;;;;;;;;31.10;16.80;;;;;;5048176;28;19927;-60
2023/04/27 08:31:22;;;;;;;;;;;31.40;17.10;;;;;;5047877;28;19924;-59
2023/04/27 08:33:47;;;;;;;;;;;31.80;16.90;;;;;;5048237;28;20000;-60
2023/04/27 08:36:13;;;;;;;;;;;31.80;16.40;;;;;;5048284;28;19913;-59
2023/04/27 08:38:38;;;;;;;;;;;31.80;15.70;;;;;;5029820;28;19916;-60
2023/04/27 08:41:03;;;;;;;;;;;32.00;16.00;;;;;;5047828;28;19916;-61
2023/04/27 08:43:35;;;;;;;;;;;32.10;16.10;;;;;;5047764;28;19913;-60
2023/04/27 08:46:01;;;;;;;;;;;32.20;16.00;;;;;;5048173;28;19921;-60
2023/04/27 08:48:27;;;;;;;;;;;32.30;16.50;;;;;;5047836;28;20411;-59
2023/04/27 08:50:52;;;;;;;;;;;32.70;16.60;;;;;;5047562;28;19924;-60
2023/04/27 08:53:20;;;;;;;;;;;32.70;15.90;;;;;;5047972;28;19952;-58
2023/04/27 08:55:45;;;;;;;;;;;32.70;15.80;;;;;;5047488;28;19979;-60
2023/04/27 08:58:11;;;;;;;;;;;32.70;15.70;;;;;;5047440;28;20209;-60
2023/04/27 09:00:38;;;;;;;;;;;32.80;15.80;;;;;;5047198;28;19931;-60
2023/04/27 09:03:04;;;;;;;;;;;33.00;16.20;;;;;;5047508;28;20271;-60
2023/04/27 09:05:30;;;;;;;;;;;33.20;14.90;;;;;;5046839;28;19917;-60
2023/04/27 09:07:56;;;;;;;;;;;32.80;15.00;;;;;;5047415;28;19944;-60
2023/04/27 09:10:22;;;;;;;;;;;32.80;15.50;;;;;;5047374;28;19956;-61
2023/04/27 09:12:54;;;;;;;;;;;32.80;15.50;;;;;;5047577;28;20375;-60
2023/04/27 09:15:20;;;;;;;;;;;33.00;15.60;;;;;;5047236;28;19916;-60
2023/04/27 09:17:45;;;;;;;;;;;33.30;15.50;;;;;;5046976;28;19912;-61
2023/04/27 09:20:14;;;;;;;;;;;33.50;15.10;;;;;;5046859;28;19921;-60
2023/04/27 09:22:46;;;;;;;;;;;33.70;14.90;;;;;;5046942;28;19962;-60
2023/04/27 09:25:24;;;;;;;;;;;33.70;14.60;;;;;;5029072;28;19924;-60
2023/04/27 09:27:50;;;;;;;;;;;33.50;14.50;;;;;;5047156;28;19916;-60
2023/04/27 09:30:15;;;;;;;;;;;33.40;14.40;;;;;;5046799;28;20295;-60
2023/04/27 09:33:03;;;;;;;;;;;33.40;14.70;;;;;;5046771;28;20284;-60
2023/04/27 09:35:30;;;;;;;;;;;33.70;15.00;;;;;;5047049;28;19917;-61
2023/04/27 09:37:55;;;;;;;;;;;33.70;14.30;;;;;;5046797;28;19920;-60
2023/04/27 09:40:32;;;;;;;;;;;33.80;14.40;;;;;;5046884;28;19925;-60
2023/04/27 09:43:00;;;;;;;;;;;34.10;14.50;;;;;;5046953;28;19959;-60
2023/04/27 09:45:26;;;;;;;;;;;34.50;14.60;;;;;;5047021;28;19917;-60
2023/04/27 09:47:51;;;;;;;;;;;34.80;13.90;;;;;;5047056;28;19919;-60
2023/04/27 09:50:17;;;;;;;;;;;35.20;13.70;;;;;;5046792;28;20403;-61
2023/04/27 09:52:44;;;;;;;;;;;35.60;14.00;;;;;;5046567;28;19962;-60
2023/04/27 09:55:12;;;;;;;;;;;36.00;13.90;;;;;;5046551;28;19913;-61
2023/04/27 09:57:50;;;;;;;;;;;36.60;14.00;;;;;;5046609;28;19928;-61
2023/04/27 10:00:22;;;;;;;;;;;37.00;13.80;;;;;;5046663;28;20007;-61
2023/04/27 10:03:06;;;;;;;;;;;37.30;12.90;;;;;;5046457;28;19917;-61
2023/04/27 10:05:45;;;;;;;;;;;37.50;12.80;;;;;;5046710;28;19917;-61
2023/04/27 10:08:11;;;;;;;;;;;37.70;12.70;;;;;;5046538;28;19920;-60
2023/04/27 10:10:46;;;;;;;;;;;38.00;12.50;;;;;;5046280;28;19912;-60
2023/04/27 10:13:19;;;;;;;;;;;38.20;12.20;;;;;;5046623;28;20025;-61
2023/04/27 10:15:44;;;;;;;;;;;38.00;11.50;;;;;;5046740;28;19975;-60
2023/04/27 10:18:10;;;;;;;;;;;37.70;10.90;;;;;;5049365;28;20379;-61
2023/04/27 10:20:36;;;;;;;;;;;37.30;10.90;;;;;;5050480;28;20136;-61
2023/04/27 10:23:02;;;;;;;;;;;37.10;11.20;;;;;;5050639;28;20427;-60
2023/04/27 10:25:28;;;;;;;;;;;37.10;11.60;;;;;;5050385;28;19921;-61
2023/04/27 10:27:55;;;;;;;;;;;37.30;11.20;;;;;;5050653;28;20000;-60
2023/04/27 10:30:22;;;;;;;;;;;37.10;11.00;;;;;;5050207;28;19923;-61
2023/04/27 10:32:50;;;;;;;;;;;37.00;10.80;;;;;;5050232;28;20352;-61
2023/04/27 10:35:16;;;;;;;;;;;36.80;10.70;;;;;;5050227;28;19916;-61
2023/04/27 10:37:42;;;;;;;;;;;36.50;11.00;;;;;;5050066;28;20351;-60
2023/04/27 10:40:16;;;;;;;;;;;36.40;11.40;;;;;;5049843;28;19921;-61
2023/04/27 10:42:45;;;;;;;;;;;36.60;11.60;;;;;;5049837;28;19912;-61
2023/04/27 10:45:11;;;;;;;;;;;36.70;11.40;;;;;;5050133;28;19913;-61
2023/04/27 10:47:38;;;;;;;;;;;36.70;11.20;;;;;;5031886;28;19912;-60
2023/04/27 10:50:04;;;;;;;;;;;36.80;11.60;;;;;;5049951;28;19951;-61
2023/04/27 10:52:30;;;;;;;;;;;36.90;11.50;;;;;;5050158;28;19944;-61
2023/04/27 10:54:56;;;;;;;;;;;37.00;11.50;;;;;;5049543;28;19913;-61
2023/04/27 10:57:21;;;;;;;;;;;37.10;11.30;;;;;;5049550;28;20421;-61
2023/04/27 10:59:51;;;;;;;;;;;37.20;11.60;;;;;;5049646;28;19913;-60
2023/04/27 11:02:23;;;;;;;;;;;37.30;11.70;;;;;;5049666;28;19912;-60
2023/04/27 11:04:48;;;;;;;;;;;37.40;11.40;;;;;;5049692;28;19928;-61
2023/04/27 11:07:22;;;;;;;;;;;37.50;11.10;;;;;;5049464;28;19909;-61
2023/04/27 11:09:48;;;;;;;;;;;37.30;10.60;;;;;;5031622;28;19925;-61
2023/04/27 11:12:13;;;;;;;;;;;37.20;10.90;;;;;;5049365;28;19962;-60
2023/04/27 11:14:39;;;;;;;;;;;37.00;10.80;;;;;;5049694;28;19920;-60
2023/04/27 11:17:04;;;;;;;;;;;36.90;11.00;;;;;;5049627;28;20364;-61
2023/04/27 11:19:31;;;;;;;;;;;36.90;11.30;;;;;;5049688;28;19909;-61
2023/04/27 11:22:03;;;;;;;;;;;36.20;11.20;;;;;;5049315;28;19967;-61
2023/04/27 11:24:28;;;;;;;;;;;35.00;11.30;;;;;;5049561;28;19948;-61
2023/04/27 11:26:53;;;;;;;;;;;33.70;11.90;;;;;;5049040;28;19964;-60
2023/04/27 11:29:19;;;;;;;;;;;33.00;12.50;;;;;;5048690;28;19971;-61
2023/04/27 11:31:49;;;;;;;;;;;32.30;12.70;;;;;;5048948;28;19924;-61
2023/04/27 11:34:22;;;;;;;;;;;31.60;12.90;;;;;;5049397;28;19909;-60
2023/04/27 11:36:58;;;;;;;;;;;30.80;13.00;;;;;;5048641;28;19917;-61
2023/04/27 11:39:27;;;;;;;;;;;29.90;13.40;;;;;;5048612;28;19939;-60
2023/04/27 11:41:53;;;;;;;;;;;28.80;14.10;;;;;;5048614;28;19971;-60
2023/04/27 11:44:24;;;;;;;;;;;28.50;14.50;;;;;;5049035;28;20340;-61
2023/04/27 11:46:49;;;;;;;;;;;28.40;14.50;;;;;;5048858;28;19913;-61
2023/04/27 11:49:15;;;;;;;;;;;28.70;14.70;;;;;;5048901;28;19939;-61
2023/04/27 11:51:43;;;;;;;;;;;29.30;14.80;;;;;;5048597;28;19919;-61
2023/04/27 11:54:09;;;;;;;;;;;29.90;14.30;;;;;;5049087;28;20025;-61
2023/04/27 11:56:38;;;;;;;;;;;30.40;14.30;;;;;;5048596;28;20062;-61
2023/04/27 11:59:04;;;;;;;;;;;31.00;14.20;;;;;;5049086;28;19935;-61
2023/04/27 12:01:30;;;;;;;;;;;31.40;13.80;;;;;;5048541;28;20428;-61
2023/04/27 12:03:55;;;;;;;;;;;31.70;13.70;;;;;;5048584;28;20480;-61
2023/04/27 12:06:27;;;;;;;;;;;32.00;13.50;;;;;;5048441;28;19913;-61
2023/04/27 12:08:54;;;;;;;;;;;32.30;13.50;;;;;;5048556;28;20295;-61
2023/04/27 12:11:19;;;;;;;;;;;32.10;13.10;;;;;;5048487;28;19913;-61
2023/04/27 12:13:46;;;;;;;;;;;31.00;13.20;;;;;;5048591;28;20470;-61
2023/04/27 12:16:12;;;;;;;;;;;30.60;13.60;;;;;;5048734;28;20413;-61
2023/04/27 12:18:37;;;;;;;;;;;30.80;13.90;;;;;;5048254;28;20374;-61
2023/04/27 12:21:05;;;;;;;;;;;31.00;13.50;;;;;;5047907;28;19917;-61
2023/04/27 12:23:30;;;;;;;;;;;31.00;13.50;;;;;;5048186;28;19924;-61
2023/04/27 12:25:55;;;;;;;;;;;31.30;13.70;;;;;;5048118;28;19939;-61
2023/04/27 12:28:21;;;;;;;;;;;31.50;13.50;;;;;;5048145;28;19920;-61
2023/04/27 12:30:46;;;;;;;;;;;31.50;13.30;;;;;;5047972;28;20331;-61
2023/04/27 12:33:12;;;;;;;;;;;31.80;13.40;;;;;;5048001;28;19917;-61
2023/04/27 12:35:37;;;;;;;;;;;32.10;13.40;;;;;;5048407;28;19924;-61
2023/04/27 12:38:03;;;;;;;;;;;32.30;12.80;;;;;;5048290;28;19919;-61
2023/04/27 12:40:28;;;;;;;;;;;31.90;12.80;;;;;;5046869;28;20364;-61
2023/04/27 12:42:54;;;;;;;;;;;31.30;13.00;;;;;;5047912;28;20621;-61
2023/04/27 12:45:19;;;;;;;;;;;31.30;13.40;;;;;;5029843;28;20277;-62
2023/04/27 12:47:45;;;;;;;;;;;31.70;13.60;;;;;;5047846;28;20580;-61
2023/04/27 12:50:10;;;;;;;;;;;32.00;13.40;;;;;;5047871;28;19916;-61
2023/04/27 12:52:36;;;;;;;;;;;32.30;13.40;;;;;;5047495;28;19919;-61
2023/04/27 12:55:03;;;;;;;;;;;32.30;13.50;;;;;;5029351;28;20012;-62
2023/04/27 12:57:28;;;;;;;;;;;32.50;13.40;;;;;;5047680;28;19919;-61
2023/04/27 12:59:55;;;;;;;;;;;32.60;13.20;;;;;;5047334;28;19921;-61
2023/04/27 13:02:20;;;;;;;;;;;32.40;12.70;;;;;;5047068;28;20355;-61
2023/04/27 13:04:46;;;;;;;;;;;32.00;12.70;;;;;;5047853;28;19917;-60
2023/04/27 13:07:11;;;;;;;;;;;31.50;12.80;;;;;;5047519;28;19909;-61
2023/04/27 13:09:37;;;;;;;;;;;31.00;13.20;;;;;;5029227;28;19955;-61
2023/04/27 13:12:02;;;;;;;;;;;31.10;13.40;;;;;;5047095;28;20319;-61
2023/04/27 13:14:27;;;;;;;;;;;31.00;13.40;;;;;;5047305;28;20537;-61
2023/04/27 13:16:53;;;;;;;;;;;30.80;13.40;;;;;;5047084;28;19923;-61
2023/04/27 13:19:18;;;;;;;;;;;30.20;13.60;;;;;;5046991;28;19913;-61
2023/04/27 13:21:44;;;;;;;;;;;29.40;13.70;;;;;;5047093;28;20016;-61
2023/04/27 13:24:09;;;;;;;;;;;28.60;14.20;;;;;;5047221;28;19912;-60
2023/04/27 13:26:35;;;;;;;;;;;28.20;14.60;;;;;;5046855;28;19913;-60
2023/04/27 13:29:03;;;;;;;;;;;28.00;14.80;;;;;;5046827;28;19920;-61
2023/04/27 13:31:30;;;;;;;;;;;27.80;14.80;;;;;;5046769;28;19916;-61
2023/04/27 13:33:56;;;;;;;;;;;27.80;14.90;;;;;;5046728;28;19974;-61
2023/04/27 13:36:21;;;;;;;;;;;27.70;14.90;;;;;;5046953;28;19995;-61
2023/04/27 13:38:47;;;;;;;;;;;27.50;15.00;;;;;;5047024;28;20404;-61
2023/04/27 13:41:12;;;;;;;;;;;27.30;15.10;;;;;;5046633;28;19925;-61
2023/04/27 13:43:38;;;;;;;;;;;27.10;15.00;;;;;;5047091;28;19952;-61
2023/04/27 13:46:03;;;;;;;;;;;26.80;15.30;;;;;;5046848;28;20011;-61
2023/04/27 13:48:29;;;;;;;;;;;26.80;15.60;;;;;;5046785;28;20008;-61
2023/04/27 13:50:55;;;;;;;;;;;27.00;15.70;;;;;;5046940;28;19921;-59
2023/04/27 13:53:20;;;;;;;;;;;27.10;15.80;;;;;;5046594;28;20558;-61
2023/04/27 13:55:46;;;;;;;;;;;27.20;15.80;;;;;;5046656;28;19964;-61
2023/04/27 13:58:12;;;;;;;;;;;27.20;15.70;;;;;;5046311;28;19939;-61
2023/04/27 14:00:38;;;;;;;;;;;26.90;15.70;;;;;;5046541;28;20722;-61
2023/04/27 14:03:03;;;;;;;;;;;26.70;16.00;;;;;;5046643;28;19999;-61
2023/04/27 14:05:29;;;;;;;;;;;26.30;16.30;;;;;;5046714;28;20287;-62
2023/04/27 14:07:55;;;;;;;;;;;26.00;16.30;;;;;;5046980;28;19925;-62
2023/04/27 14:10:21;;;;;;;;;;;25.50;16.50;;;;;;5046566;28;20016;-61
2023/04/27 14:12:47;;;;;;;;;;;25.10;17.00;;;;;;5046734;28;19917;-62
2023/04/27 14:15:13;;;;;;;;;;;24.80;17.30;;;;;;5046468;28;19995;-61